sensor_id;sensor_type;location;lat;lon;timestamp;P1;durP1;ratioP1;P2;durP2;ratioP2
56629;SDS011;42502;40.732;-74.254;2022-07-30T00:01:21;2.40;;;2.20;;
56629;SDS011;42502;40.732;-74.254;2022-07-30T00:03:22;2.03;;;1.92;;
56629;SDS011;42502;40.732;-74.254;2022-07-30T00:05:23;2.08;;;1.98;;
56629;SDS011;42502;40.732;-74.254;2022-07-30T00:07:23;2.03;;;1.92;;
56629;SDS011;42502;40.732;-74.254;2022-07-30T00:09:24;1.75;;;1.65;;
56629;SDS011;42502;40.732;-74.254;2022-07-30T00:11:28;2.10;;;1.90;;
56629;SDS011;42502;40.732;-74.254;2022-07-30T00:13:32;2.00;;;1.90;;
56629;SDS011;42502;40.732;-74.254;2022-07-30T00:15:33;1.75;;;1.63;;
56629;SDS011;42502;40.732;-74.254;2022-07-30T00:17:34;2.05;;;1.92;;
56629;SDS011;42502;40.732;-74.254;2022-07-30T00:19:34;2.17;;;2.08;;
56629;SDS011;42502;40.732;-74.254;2022-07-30T00:21:35;2.08;;;1.90;;
56629;SDS011;42502;40.732;-74.254;2022-07-30T00:23:36;2.03;;;1.92;;
56629;SDS011;42502;40.732;-74.254;2022-07-30T00:25:37;1.80;;;1.70;;
56629;SDS011;42502;40.732;-74.254;2022-07-30T00:27:39;2.10;;;2.00;;
56629;SDS011;42502;40.732;-74.254;2022-07-30T00:29:39;2.45;;;2.20;;
56629;SDS011;42502;40.732;-74.254;2022-07-30T00:31:46;2.13;;;2.03;;
56629;SDS011;42502;40.732;-74.254;2022-07-30T00:33:47;1.77;;;1.67;;
56629;SDS011;42502;40.732;-74.254;2022-07-30T00:35:48;2.30;;;2.20;;
56629;SDS011;42502;40.732;-74.254;2022-07-30T00:37:49;2.10;;;1.95;;
56629;SDS011;42502;40.732;-74.254;2022-07-30T00:39:49;2.05;;;1.95;;
56629;SDS011;42502;40.732;-74.254;2022-07-30T00:41:57;2.30;;;2.10;;
56629;SDS011;42502;40.732;-74.254;2022-07-30T00:44:02;2.10;;;1.90;;
56629;SDS011;42502;40.732;-74.254;2022-07-30T00:46:06;1.75;;;1.65;;
56629;SDS011;42502;40.732;-74.254;2022-07-30T00:48:10;2.30;;;2.10;;
56629;SDS011;42502;40.732;-74.254;2022-07-30T00:50:13;2.10;;;2.00;;
56629;SDS011;42502;40.732;-74.254;2022-07-30T00:52:14;2.67;;;2.10;;
56629;SDS011;42502;40.732;-74.254;2022-07-30T00:54:18;1.67;;;1.52;;
56629;SDS011;42502;40.732;-74.254;2022-07-30T00:56:20;2.17;;;1.98;;
56629;SDS011;42502;40.732;-74.254;2022-07-30T00:58:23;1.80;;;1.70;;
56629;SDS011;42502;40.732;-74.254;2022-07-30T01:00:25;2.08;;;1.98;;
56629;SDS011;42502;40.732;-74.254;2022-07-30T01:02:26;1.90;;;1.80;;
56629;SDS011;42502;40.732;-74.254;2022-07-30T01:04:27;2.10;;;2.00;;
56629;SDS011;42502;40.732;-74.254;2022-07-30T01:06:29;1.90;;;1.80;;
56629;SDS011;42502;40.732;-74.254;2022-07-30T01:08:29;2.08;;;1.98;;
56629;SDS011;42502;40.732;-74.254;2022-07-30T01:10:30;1.80;;;1.70;;
56629;SDS011;42502;40.732;-74.254;2022-07-30T01:12:31;2.13;;;1.92;;
56629;SDS011;42502;40.732;-74.254;2022-07-30T01:14:35;1.92;;;1.83;;
56629;SDS011;42502;40.732;-74.254;2022-07-30T01:16:37;2.63;;;2.00;;
56629;SDS011;42502;40.732;-74.254;2022-07-30T01:18:41;2.08;;;1.98;;
56629;SDS011;42502;40.732;-74.254;2022-07-30T01:21:06;2.38;;;1.80;;
56629;SDS011;42502;40.732;-74.254;2022-07-30T01:23:22;2.20;;;1.95;;
56629;SDS011;42502;40.732;-74.254;2022-07-30T01:28:01;1.98;;;1.80;;
56629;SDS011;42502;40.732;-74.254;2022-07-30T01:30:05;2.05;;;1.95;;
56629;SDS011;42502;40.732;-74.254;2022-07-30T01:32:07;4.13;;;1.98;;
56629;SDS011;42502;40.732;-74.254;2022-07-30T01:34:10;2.38;;;2.17;;
56629;SDS011;42502;40.732;-74.254;2022-07-30T01:36:15;2.13;;;1.58;;
56629;SDS011;42502;40.732;-74.254;2022-07-30T01:38:20;2.08;;;1.98;;
56629;SDS011;42502;40.732;-74.254;2022-07-30T01:40:23;1.92;;;1.83;;
56629;SDS011;42502;40.732;-74.254;2022-07-30T01:42:28;1.70;;;1.60;;
56629;SDS011;42502;40.732;-74.254;2022-07-30T01:44:30;1.92;;;1.83;;
56629;SDS011;42502;40.732;-74.254;2022-07-30T01:46:32;1.90;;;1.80;;
56629;SDS011;42502;40.732;-74.254;2022-07-30T01:48:37;1.80;;;1.70;;
56629;SDS011;42502;40.732;-74.254;2022-07-30T01:50:41;1.95;;;1.80;;
56629;SDS011;42502;40.732;-74.254;2022-07-30T01:52:45;2.65;;;2.20;;
56629;SDS011;42502;40.732;-74.254;2022-07-30T01:54:49;1.75;;;1.65;;
56629;SDS011;42502;40.732;-74.254;2022-07-30T01:56:53;1.77;;;1.67;;
56629;SDS011;42502;40.732;-74.254;2022-07-30T01:58:55;1.92;;;1.83;;
56629;SDS011;42502;40.732;-74.254;2022-07-30T02:00:58;2.10;;;1.90;;
56629;SDS011;42502;40.732;-74.254;2022-07-30T02:02:59;1.90;;;1.80;;
56629;SDS011;42502;40.732;-74.254;2022-07-30T02:05:03;2.13;;;1.70;;
56629;SDS011;42502;40.732;-74.254;2022-07-30T02:07:26;1.98;;;1.88;;
56629;SDS011;42502;40.732;-74.254;2022-07-30T02:09:34;2.25;;;2.15;;
56629;SDS011;42502;40.732;-74.254;2022-07-30T02:11:42;1.98;;;1.77;;
56629;SDS011;42502;40.732;-74.254;2022-07-30T02:14:06;2.00;;;1.90;;
56629;SDS011;42502;40.732;-74.254;2022-07-30T02:16:18;1.92;;;1.83;;
56629;SDS011;42502;40.732;-74.254;2022-07-30T02:18:34;2.28;;;2.00;;
56629;SDS011;42502;40.732;-74.254;2022-07-30T02:20:41;1.60;;;1.50;;
56629;SDS011;42502;40.732;-74.254;2022-07-30T02:22:46;1.90;;;1.80;;
56629;SDS011;42502;40.732;-74.254;2022-07-30T02:24:48;1.80;;;1.70;;
56629;SDS011;42502;40.732;-74.254;2022-07-30T02:26:52;2.63;;;1.58;;
56629;SDS011;42502;40.732;-74.254;2022-07-30T02:28:58;1.83;;;1.73;;
56629;SDS011;42502;40.732;-74.254;2022-07-30T02:31:02;2.17;;;1.98;;
56629;SDS011;42502;40.732;-74.254;2022-07-30T02:33:05;1.90;;;1.73;;
56629;SDS011;42502;40.732;-74.254;2022-07-30T02:35:14;1.75;;;1.65;;
56629;SDS011;42502;40.732;-74.254;2022-07-30T02:37:19;1.60;;;1.50;;
56629;SDS011;42502;40.732;-74.254;2022-07-30T02:41:26;2.40;;;1.85;;
56629;SDS011;42502;40.732;-74.254;2022-07-30T02:43:29;1.90;;;1.63;;
56629;SDS011;42502;40.732;-74.254;2022-07-30T02:45:34;2.35;;;1.65;;
56629;SDS011;42502;40.732;-74.254;2022-07-30T02:47:37;1.80;;;1.70;;
56629;SDS011;42502;40.732;-74.254;2022-07-30T02:49:40;1.50;;;1.40;;
56629;SDS011;42502;40.732;-74.254;2022-07-30T02:51:42;1.83;;;1.70;;
56629;SDS011;42502;40.732;-74.254;2022-07-30T02:53:45;1.90;;;1.80;;
56629;SDS011;42502;40.732;-74.254;2022-07-30T02:55:48;2.00;;;1.70;;
56629;SDS011;42502;40.732;-74.254;2022-07-30T02:57:50;1.90;;;1.80;;
56629;SDS011;42502;40.732;-74.254;2022-07-30T02:59:52;1.90;;;1.80;;
56629;SDS011;42502;40.732;-74.254;2022-07-30T03:01:55;2.08;;;1.70;;
56629;SDS011;42502;40.732;-74.254;2022-07-30T03:03:57;1.90;;;1.75;;
56629;SDS011;42502;40.732;-74.254;2022-07-30T03:05:59;1.67;;;1.58;;
56629;SDS011;42502;40.732;-74.254;2022-07-30T03:08:01;1.80;;;1.70;;
56629;SDS011;42502;40.732;-74.254;2022-07-30T03:10:04;1.75;;;1.65;;
56629;SDS011;42502;40.732;-74.254;2022-07-30T03:12:06;1.70;;;1.60;;
56629;SDS011;42502;40.732;-74.254;2022-07-30T03:14:09;2.10;;;1.90;;
56629;SDS011;42502;40.732;-74.254;2022-07-30T03:16:10;1.90;;;1.80;;
56629;SDS011;42502;40.732;-74.254;2022-07-30T03:18:13;1.98;;;1.88;;
56629;SDS011;42502;40.732;-74.254;2022-07-30T03:20:16;1.70;;;1.60;;
56629;SDS011;42502;40.732;-74.254;2022-07-30T03:22:21;1.70;;;1.60;;
56629;SDS011;42502;40.732;-74.254;2022-07-30T03:24:25;2.30;;;1.50;;
56629;SDS011;42502;40.732;-74.254;2022-07-30T03:26:26;1.65;;;1.55;;
56629;SDS011;42502;40.732;-74.254;2022-07-30T03:28:30;1.67;;;1.58;;
56629;SDS011;42502;40.732;-74.254;2022-07-30T03:30:32;1.70;;;1.60;;
56629;SDS011;42502;40.732;-74.254;2022-07-30T03:32:33;1.92;;;1.73;;
56629;SDS011;42502;40.732;-74.254;2022-07-30T03:34:36;1.80;;;1.70;;
56629;SDS011;42502;40.732;-74.254;2022-07-30T03:36:37;1.90;;;1.80;;
56629;SDS011;42502;40.732;-74.254;2022-07-30T03:38:41;2.03;;;1.92;;
56629;SDS011;42502;40.732;-74.254;2022-07-30T03:40:43;1.55;;;1.42;;
56629;SDS011;42502;40.732;-74.254;2022-07-30T03:42:45;2.00;;;1.90;;
56629;SDS011;42502;40.732;-74.254;2022-07-30T03:44:47;1.80;;;1.70;;
56629;SDS011;42502;40.732;-74.254;2022-07-30T03:46:48;2.13;;;1.92;;
56629;SDS011;42502;40.732;-74.254;2022-07-30T03:48:51;1.90;;;1.80;;
56629;SDS011;42502;40.732;-74.254;2022-07-30T03:50:54;1.90;;;1.80;;
56629;SDS011;42502;40.732;-74.254;2022-07-30T03:52:55;1.88;;;1.77;;
56629;SDS011;42502;40.732;-74.254;2022-07-30T03:54:56;1.88;;;1.77;;
56629;SDS011;42502;40.732;-74.254;2022-07-30T03:56:58;1.90;;;1.67;;
56629;SDS011;42502;40.732;-74.254;2022-07-30T03:59:03;1.67;;;1.58;;
56629;SDS011;42502;40.732;-74.254;2022-07-30T04:01:04;1.95;;;1.85;;
56629;SDS011;42502;40.732;-74.254;2022-07-30T04:03:05;1.60;;;1.50;;
56629;SDS011;42502;40.732;-74.254;2022-07-30T04:05:06;1.70;;;1.60;;
56629;SDS011;42502;40.732;-74.254;2022-07-30T04:07:14;1.70;;;1.60;;
56629;SDS011;42502;40.732;-74.254;2022-07-30T04:09:15;1.90;;;1.80;;
56629;SDS011;42502;40.732;-74.254;2022-07-30T04:11:15;1.70;;;1.60;;
56629;SDS011;42502;40.732;-74.254;2022-07-30T04:13:16;1.77;;;1.67;;
56629;SDS011;42502;40.732;-74.254;2022-07-30T04:15:17;1.63;;;1.52;;
56629;SDS011;42502;40.732;-74.254;2022-07-30T04:17:20;1.90;;;1.80;;
56629;SDS011;42502;40.732;-74.254;2022-07-30T04:19:34;1.60;;;1.50;;
56629;SDS011;42502;40.732;-74.254;2022-07-30T04:22:02;1.70;;;1.50;;
56629;SDS011;42502;40.732;-74.254;2022-07-30T04:24:05;1.52;;;1.42;;
56629;SDS011;42502;40.732;-74.254;2022-07-30T04:26:07;1.63;;;1.52;;
56629;SDS011;42502;40.732;-74.254;2022-07-30T04:28:09;1.80;;;1.70;;
56629;SDS011;42502;40.732;-74.254;2022-07-30T04:30:11;2.00;;;1.90;;
56629;SDS011;42502;40.732;-74.254;2022-07-30T04:32:12;1.55;;;1.45;;
56629;SDS011;42502;40.732;-74.254;2022-07-30T04:34:13;2.25;;;1.45;;
56629;SDS011;42502;40.732;-74.254;2022-07-30T04:36:14;1.95;;;1.85;;
56629;SDS011;42502;40.732;-74.254;2022-07-30T04:38:15;1.70;;;1.60;;
56629;SDS011;42502;40.732;-74.254;2022-07-30T04:40:16;1.90;;;1.80;;
56629;SDS011;42502;40.732;-74.254;2022-07-30T04:42:16;1.80;;;1.70;;
56629;SDS011;42502;40.732;-74.254;2022-07-30T04:44:17;1.98;;;1.88;;
56629;SDS011;42502;40.732;-74.254;2022-07-30T04:46:19;2.65;;;1.80;;
56629;SDS011;42502;40.732;-74.254;2022-07-30T04:48:20;2.65;;;2.00;;
56629;SDS011;42502;40.732;-74.254;2022-07-30T04:50:21;2.22;;;1.70;;
56629;SDS011;42502;40.732;-74.254;2022-07-30T04:52:25;1.88;;;1.77;;
56629;SDS011;42502;40.732;-74.254;2022-07-30T04:54:27;1.88;;;1.77;;
56629;SDS011;42502;40.732;-74.254;2022-07-30T04:56:36;1.95;;;1.70;;
56629;SDS011;42502;40.732;-74.254;2022-07-30T04:58:38;2.00;;;1.70;;
56629;SDS011;42502;40.732;-74.254;2022-07-30T05:00:40;1.90;;;1.80;;
56629;SDS011;42502;40.732;-74.254;2022-07-30T05:02:46;1.90;;;1.80;;
56629;SDS011;42502;40.732;-74.254;2022-07-30T05:06:49;1.75;;;1.65;;
56629;SDS011;42502;40.732;-74.254;2022-07-30T05:08:51;1.85;;;1.70;;
56629;SDS011;42502;40.732;-74.254;2022-07-30T05:10:52;1.80;;;1.70;;
56629;SDS011;42502;40.732;-74.254;2022-07-30T05:12:53;2.17;;;2.03;;
56629;SDS011;42502;40.732;-74.254;2022-07-30T05:14:54;1.70;;;1.60;;
56629;SDS011;42502;40.732;-74.254;2022-07-30T05:16:55;1.63;;;1.52;;
56629;SDS011;42502;40.732;-74.254;2022-07-30T05:18:56;1.80;;;1.70;;
56629;SDS011;42502;40.732;-74.254;2022-07-30T05:20:57;1.70;;;1.60;;
56629;SDS011;42502;40.732;-74.254;2022-07-30T05:22:58;1.83;;;1.73;;
56629;SDS011;42502;40.732;-74.254;2022-07-30T05:24:59;2.03;;;1.73;;
56629;SDS011;42502;40.732;-74.254;2022-07-30T05:27:00;2.05;;;1.95;;
56629;SDS011;42502;40.732;-74.254;2022-07-30T05:29:00;1.88;;;1.75;;
56629;SDS011;42502;40.732;-74.254;2022-07-30T05:31:02;2.05;;;1.95;;
56629;SDS011;42502;40.732;-74.254;2022-07-30T05:33:02;1.90;;;1.80;;
56629;SDS011;42502;40.732;-74.254;2022-07-30T05:35:03;1.63;;;1.52;;
56629;SDS011;42502;40.732;-74.254;2022-07-30T05:37:04;2.75;;;1.77;;
56629;SDS011;42502;40.732;-74.254;2022-07-30T05:39:05;1.95;;;1.85;;
56629;SDS011;42502;40.732;-74.254;2022-07-30T05:41:06;1.98;;;1.88;;
56629;SDS011;42502;40.732;-74.254;2022-07-30T05:43:07;1.70;;;1.60;;
56629;SDS011;42502;40.732;-74.254;2022-07-30T05:45:08;1.88;;;1.77;;
56629;SDS011;42502;40.732;-74.254;2022-07-30T05:47:09;1.85;;;1.63;;
56629;SDS011;42502;40.732;-74.254;2022-07-30T05:49:10;1.80;;;1.70;;
56629;SDS011;42502;40.732;-74.254;2022-07-30T05:51:11;1.70;;;1.60;;
56629;SDS011;42502;40.732;-74.254;2022-07-30T05:53:12;1.88;;;1.77;;
56629;SDS011;42502;40.732;-74.254;2022-07-30T05:55:13;1.63;;;1.52;;
56629;SDS011;42502;40.732;-74.254;2022-07-30T05:57:14;1.83;;;1.70;;
56629;SDS011;42502;40.732;-74.254;2022-07-30T05:59:14;1.70;;;1.60;;
56629;SDS011;42502;40.732;-74.254;2022-07-30T06:01:15;1.95;;;1.70;;
56629;SDS011;42502;40.732;-74.254;2022-07-30T06:03:16;2.67;;;2.00;;
56629;SDS011;42502;40.732;-74.254;2022-07-30T06:05:17;1.50;;;1.40;;
56629;SDS011;42502;40.732;-74.254;2022-07-30T06:07:18;1.98;;;1.88;;
56629;SDS011;42502;40.732;-74.254;2022-07-30T06:09:19;1.58;;;1.48;;
56629;SDS011;42502;40.732;-74.254;2022-07-30T06:11:20;1.70;;;1.60;;
56629;SDS011;42502;40.732;-74.254;2022-07-30T06:13:21;2.42;;;1.67;;
56629;SDS011;42502;40.732;-74.254;2022-07-30T06:15:22;2.10;;;2.00;;
56629;SDS011;42502;40.732;-74.254;2022-07-30T06:17:23;1.77;;;1.67;;
56629;SDS011;42502;40.732;-74.254;2022-07-30T06:19:23;2.15;;;1.90;;
56629;SDS011;42502;40.732;-74.254;2022-07-30T06:21:25;1.88;;;1.77;;
56629;SDS011;42502;40.732;-74.254;2022-07-30T06:23:26;1.90;;;1.80;;
56629;SDS011;42502;40.732;-74.254;2022-07-30T06:25:27;1.80;;;1.70;;
56629;SDS011;42502;40.732;-74.254;2022-07-30T06:27:28;1.90;;;1.80;;
56629;SDS011;42502;40.732;-74.254;2022-07-30T06:29:29;1.88;;;1.77;;
56629;SDS011;42502;40.732;-74.254;2022-07-30T06:31:30;1.98;;;1.77;;
56629;SDS011;42502;40.732;-74.254;2022-07-30T06:33:31;1.70;;;1.60;;
56629;SDS011;42502;40.732;-74.254;2022-07-30T06:35:32;1.80;;;1.70;;
56629;SDS011;42502;40.732;-74.254;2022-07-30T06:37:33;2.17;;;1.92;;
56629;SDS011;42502;40.732;-74.254;2022-07-30T06:39:34;1.80;;;1.70;;
56629;SDS011;42502;40.732;-74.254;2022-07-30T06:41:35;1.70;;;1.60;;
56629;SDS011;42502;40.732;-74.254;2022-07-30T06:43:35;2.15;;;1.95;;
56629;SDS011;42502;40.732;-74.254;2022-07-30T06:45:36;3.05;;;2.03;;
56629;SDS011;42502;40.732;-74.254;2022-07-30T06:47:38;2.10;;;1.88;;
56629;SDS011;42502;40.732;-74.254;2022-07-30T06:49:39;2.08;;;1.98;;
56629;SDS011;42502;40.732;-74.254;2022-07-30T06:51:40;1.90;;;1.80;;
56629;SDS011;42502;40.732;-74.254;2022-07-30T06:53:40;1.73;;;1.63;;
56629;SDS011;42502;40.732;-74.254;2022-07-30T06:55:41;1.80;;;1.70;;
56629;SDS011;42502;40.732;-74.254;2022-07-30T06:57:42;1.90;;;1.80;;
56629;SDS011;42502;40.732;-74.254;2022-07-30T06:59:43;1.75;;;1.65;;
56629;SDS011;42502;40.732;-74.254;2022-07-30T07:01:44;1.50;;;1.40;;
56629;SDS011;42502;40.732;-74.254;2022-07-30T07:03:45;1.67;;;1.55;;
56629;SDS011;42502;40.732;-74.254;2022-07-30T07:05:46;2.42;;;2.00;;
56629;SDS011;42502;40.732;-74.254;2022-07-30T07:07:46;1.80;;;1.70;;
56629;SDS011;42502;40.732;-74.254;2022-07-30T07:09:47;1.85;;;1.75;;
56629;SDS011;42502;40.732;-74.254;2022-07-30T07:11:49;1.65;;;1.55;;
56629;SDS011;42502;40.732;-74.254;2022-07-30T07:13:53;2.17;;;1.83;;
56629;SDS011;42502;40.732;-74.254;2022-07-30T07:15:54;1.70;;;1.60;;
56629;SDS011;42502;40.732;-74.254;2022-07-30T07:17:56;1.90;;;1.80;;
56629;SDS011;42502;40.732;-74.254;2022-07-30T07:20:00;1.77;;;1.67;;
56629;SDS011;42502;40.732;-74.254;2022-07-30T07:22:01;1.88;;;1.70;;
56629;SDS011;42502;40.732;-74.254;2022-07-30T07:24:01;1.98;;;1.73;;
56629;SDS011;42502;40.732;-74.254;2022-07-30T07:26:02;1.80;;;1.70;;
56629;SDS011;42502;40.732;-74.254;2022-07-30T07:28:03;2.03;;;1.90;;
56629;SDS011;42502;40.732;-74.254;2022-07-30T07:30:05;1.77;;;1.67;;
56629;SDS011;42502;40.732;-74.254;2022-07-30T07:32:06;1.88;;;1.77;;
56629;SDS011;42502;40.732;-74.254;2022-07-30T07:34:07;2.20;;;1.60;;
56629;SDS011;42502;40.732;-74.254;2022-07-30T07:36:08;1.90;;;1.80;;
56629;SDS011;42502;40.732;-74.254;2022-07-30T07:38:09;2.00;;;1.90;;
56629;SDS011;42502;40.732;-74.254;2022-07-30T07:40:10;1.50;;;1.40;;
56629;SDS011;42502;40.732;-74.254;2022-07-30T07:42:12;1.83;;;1.73;;
56629;SDS011;42502;40.732;-74.254;2022-07-30T07:44:13;1.80;;;1.70;;
56629;SDS011;42502;40.732;-74.254;2022-07-30T07:46:13;1.98;;;1.77;;
56629;SDS011;42502;40.732;-74.254;2022-07-30T07:48:16;1.75;;;1.65;;
56629;SDS011;42502;40.732;-74.254;2022-07-30T07:50:18;1.75;;;1.65;;
56629;SDS011;42502;40.732;-74.254;2022-07-30T07:52:19;1.70;;;1.60;;
56629;SDS011;42502;40.732;-74.254;2022-07-30T07:54:20;2.13;;;1.92;;
56629;SDS011;42502;40.732;-74.254;2022-07-30T07:56:21;1.98;;;1.88;;
56629;SDS011;42502;40.732;-74.254;2022-07-30T07:58:21;1.70;;;1.58;;
56629;SDS011;42502;40.732;-74.254;2022-07-30T08:00:22;1.60;;;1.50;;
56629;SDS011;42502;40.732;-74.254;2022-07-30T08:02:26;1.98;;;1.83;;
56629;SDS011;42502;40.732;-74.254;2022-07-30T08:04:27;1.75;;;1.65;;
56629;SDS011;42502;40.732;-74.254;2022-07-30T08:06:28;1.63;;;1.52;;
56629;SDS011;42502;40.732;-74.254;2022-07-30T08:08:29;1.90;;;1.80;;
56629;SDS011;42502;40.732;-74.254;2022-07-30T08:10:30;1.60;;;1.50;;
56629;SDS011;42502;40.732;-74.254;2022-07-30T08:12:34;1.83;;;1.60;;
56629;SDS011;42502;40.732;-74.254;2022-07-30T08:14:35;2.03;;;1.88;;
56629;SDS011;42502;40.732;-74.254;2022-07-30T08:16:36;1.70;;;1.60;;
56629;SDS011;42502;40.732;-74.254;2022-07-30T08:18:37;1.60;;;1.50;;
56629;SDS011;42502;40.732;-74.254;2022-07-30T08:20:38;1.40;;;1.30;;
56629;SDS011;42502;40.732;-74.254;2022-07-30T08:22:39;1.73;;;1.63;;
56629;SDS011;42502;40.732;-74.254;2022-07-30T08:24:40;1.80;;;1.70;;
56629;SDS011;42502;40.732;-74.254;2022-07-30T08:26:41;1.63;;;1.52;;
56629;SDS011;42502;40.732;-74.254;2022-07-30T08:28:42;1.67;;;1.58;;
56629;SDS011;42502;40.732;-74.254;2022-07-30T08:30:42;1.40;;;1.30;;
56629;SDS011;42502;40.732;-74.254;2022-07-30T08:32:43;1.92;;;1.77;;
56629;SDS011;42502;40.732;-74.254;2022-07-30T08:34:44;1.60;;;1.50;;
56629;SDS011;42502;40.732;-74.254;2022-07-30T08:36:45;1.80;;;1.70;;
56629;SDS011;42502;40.732;-74.254;2022-07-30T08:38:46;1.75;;;1.65;;
56629;SDS011;42502;40.732;-74.254;2022-07-30T08:40:47;1.48;;;1.38;;
56629;SDS011;42502;40.732;-74.254;2022-07-30T08:42:47;2.08;;;1.98;;
56629;SDS011;42502;40.732;-74.254;2022-07-30T08:44:49;1.60;;;1.50;;
56629;SDS011;42502;40.732;-74.254;2022-07-30T08:46:58;1.48;;;1.38;;
56629;SDS011;42502;40.732;-74.254;2022-07-30T08:49:00;1.60;;;1.50;;
56629;SDS011;42502;40.732;-74.254;2022-07-30T08:51:01;1.40;;;1.30;;
56629;SDS011;42502;40.732;-74.254;2022-07-30T08:53:02;1.70;;;1.60;;
56629;SDS011;42502;40.732;-74.254;2022-07-30T08:55:03;1.67;;;1.58;;
56629;SDS011;42502;40.732;-74.254;2022-07-30T08:57:05;2.13;;;1.52;;
56629;SDS011;42502;40.732;-74.254;2022-07-30T08:59:06;1.70;;;1.60;;
56629;SDS011;42502;40.732;-74.254;2022-07-30T09:01:07;1.58;;;1.48;;
56629;SDS011;42502;40.732;-74.254;2022-07-30T09:03:08;1.83;;;1.73;;
56629;SDS011;42502;40.732;-74.254;2022-07-30T09:05:10;1.90;;;1.80;;
56629;SDS011;42502;40.732;-74.254;2022-07-30T09:07:11;1.65;;;1.55;;
56629;SDS011;42502;40.732;-74.254;2022-07-30T09:09:12;1.25;;;1.17;;
56629;SDS011;42502;40.732;-74.254;2022-07-30T09:11:13;1.50;;;1.40;;
56629;SDS011;42502;40.732;-74.254;2022-07-30T09:13:35;1.92;;;1.60;;
56629;SDS011;42502;40.732;-74.254;2022-07-30T09:15:37;1.60;;;1.50;;
56629;SDS011;42502;40.732;-74.254;2022-07-30T09:20:02;1.60;;;1.50;;
56629;SDS011;42502;40.732;-74.254;2022-07-30T09:22:04;2.17;;;1.75;;
56629;SDS011;42502;40.732;-74.254;2022-07-30T09:24:07;1.55;;;1.45;;
56629;SDS011;42502;40.732;-74.254;2022-07-30T09:26:09;1.52;;;1.30;;
56629;SDS011;42502;40.732;-74.254;2022-07-30T09:28:10;1.73;;;1.63;;
56629;SDS011;42502;40.732;-74.254;2022-07-30T09:30:12;2.08;;;1.63;;
56629;SDS011;42502;40.732;-74.254;2022-07-30T09:32:13;1.70;;;1.60;;
56629;SDS011;42502;40.732;-74.254;2022-07-30T09:36:25;1.48;;;1.38;;
56629;SDS011;42502;40.732;-74.254;2022-07-30T09:38:40;1.50;;;1.40;;
56629;SDS011;42502;40.732;-74.254;2022-07-30T09:40:49;1.80;;;1.70;;
56629;SDS011;42502;40.732;-74.254;2022-07-30T09:43:08;1.75;;;1.65;;
56629;SDS011;42502;40.732;-74.254;2022-07-30T09:45:11;1.52;;;1.42;;
56629;SDS011;42502;40.732;-74.254;2022-07-30T09:49:37;1.58;;;1.48;;
56629;SDS011;42502;40.732;-74.254;2022-07-30T09:51:40;1.92;;;1.35;;
56629;SDS011;42502;40.732;-74.254;2022-07-30T09:53:57;1.75;;;1.65;;
56629;SDS011;42502;40.732;-74.254;2022-07-30T09:55:58;1.42;;;1.33;;
56629;SDS011;42502;40.732;-74.254;2022-07-30T09:58:01;1.67;;;1.58;;
56629;SDS011;42502;40.732;-74.254;2022-07-30T10:00:16;1.58;;;1.48;;
56629;SDS011;42502;40.732;-74.254;2022-07-30T10:04:30;1.60;;;1.50;;
56629;SDS011;42502;40.732;-74.254;2022-07-30T10:06:32;1.52;;;1.42;;
56629;SDS011;42502;40.732;-74.254;2022-07-30T10:08:41;1.65;;;1.55;;
56629;SDS011;42502;40.732;-74.254;2022-07-30T10:10:49;1.58;;;1.48;;
56629;SDS011;42502;40.732;-74.254;2022-07-30T10:12:50;1.50;;;1.40;;
56629;SDS011;42502;40.732;-74.254;2022-07-30T10:14:52;1.77;;;1.50;;
56629;SDS011;42502;40.732;-74.254;2022-07-30T10:16:58;1.55;;;1.45;;
56629;SDS011;42502;40.732;-74.254;2022-07-30T10:18:59;1.60;;;1.50;;
56629;SDS011;42502;40.732;-74.254;2022-07-30T10:21:01;1.30;;;1.20;;
56629;SDS011;42502;40.732;-74.254;2022-07-30T10:23:05;1.45;;;1.35;;
56629;SDS011;42502;40.732;-74.254;2022-07-30T10:25:07;1.70;;;1.60;;
56629;SDS011;42502;40.732;-74.254;2022-07-30T10:27:09;1.63;;;1.52;;
56629;SDS011;42502;40.732;-74.254;2022-07-30T10:29:10;1.52;;;1.42;;
56629;SDS011;42502;40.732;-74.254;2022-07-30T10:31:11;1.55;;;1.45;;
56629;SDS011;42502;40.732;-74.254;2022-07-30T10:33:14;1.65;;;1.55;;
56629;SDS011;42502;40.732;-74.254;2022-07-30T10:35:15;1.65;;;1.55;;
56629;SDS011;42502;40.732;-74.254;2022-07-30T10:37:17;1.42;;;1.33;;
56629;SDS011;42502;40.732;-74.254;2022-07-30T10:39:22;1.52;;;1.42;;
56629;SDS011;42502;40.732;-74.254;2022-07-30T10:48:48;1.65;;;1.55;;
56629;SDS011;42502;40.732;-74.254;2022-07-30T10:50:56;1.58;;;1.48;;
56629;SDS011;42502;40.732;-74.254;2022-07-30T10:52:59;1.55;;;1.45;;
56629;SDS011;42502;40.732;-74.254;2022-07-30T10:55:00;1.42;;;1.33;;
56629;SDS011;42502;40.732;-74.254;2022-07-30T10:57:09;1.40;;;1.30;;
56629;SDS011;42502;40.732;-74.254;2022-07-30T10:59:11;1.67;;;1.58;;
56629;SDS011;42502;40.732;-74.254;2022-07-30T11:01:11;1.45;;;1.35;;
56629;SDS011;42502;40.732;-74.254;2022-07-30T11:03:14;1.45;;;1.35;;
56629;SDS011;42502;40.732;-74.254;2022-07-30T11:11:42;1.60;;;1.50;;
56629;SDS011;42502;40.732;-74.254;2022-07-30T11:13:57;1.48;;;1.38;;
56629;SDS011;42502;40.732;-74.254;2022-07-30T11:16:00;1.30;;;1.20;;
56629;SDS011;42502;40.732;-74.254;2022-07-30T11:18:02;1.60;;;1.50;;
56629;SDS011;42502;40.732;-74.254;2022-07-30T11:24:43;1.40;;;1.30;;
56629;SDS011;42502;40.732;-74.254;2022-07-30T11:26:46;1.40;;;1.30;;
56629;SDS011;42502;40.732;-74.254;2022-07-30T11:28:48;1.30;;;1.20;;
56629;SDS011;42502;40.732;-74.254;2022-07-30T11:30:49;1.20;;;1.10;;
56629;SDS011;42502;40.732;-74.254;2022-07-30T11:32:57;1.40;;;1.30;;
56629;SDS011;42502;40.732;-74.254;2022-07-30T11:37:19;1.10;;;1.10;;
56629;SDS011;42502;40.732;-74.254;2022-07-30T11:39:20;1.38;;;1.25;;
56629;SDS011;42502;40.732;-74.254;2022-07-30T11:41:21;2.75;;;1.60;;
56629;SDS011;42502;40.732;-74.254;2022-07-30T11:45:24;1.20;;;1.10;;
56629;SDS011;42502;40.732;-74.254;2022-07-30T11:47:28;1.20;;;1.13;;
56629;SDS011;42502;40.732;-74.254;2022-07-30T11:49:35;1.30;;;1.20;;
56629;SDS011;42502;40.732;-74.254;2022-07-30T11:51:40;1.45;;;1.35;;
56629;SDS011;42502;40.732;-74.254;2022-07-30T11:53:58;1.52;;;1.27;;
56629;SDS011;42502;40.732;-74.254;2022-07-30T11:56:03;1.20;;;1.10;;
56629;SDS011;42502;40.732;-74.254;2022-07-30T11:58:08;1.30;;;1.20;;
56629;SDS011;42502;40.732;-74.254;2022-07-30T12:00:21;1.27;;;1.17;;
56629;SDS011;42502;40.732;-74.254;2022-07-30T12:02:26;1.10;;;1.10;;
56629;SDS011;42502;40.732;-74.254;2022-07-30T12:04:27;1.10;;;1.10;;
56629;SDS011;42502;40.732;-74.254;2022-07-30T12:06:28;1.00;;;0.90;;
56629;SDS011;42502;40.732;-74.254;2022-07-30T12:08:40;1.20;;;1.00;;
56629;SDS011;42502;40.732;-74.254;2022-07-30T12:10:58;1.17;;;1.08;;
56629;SDS011;42502;40.732;-74.254;2022-07-30T12:13:10;1.65;;;1.10;;
56629;SDS011;42502;40.732;-74.254;2022-07-30T12:15:28;1.80;;;1.10;;
56629;SDS011;42502;40.732;-74.254;2022-07-30T12:17:42;1.30;;;1.20;;
56629;SDS011;42502;40.732;-74.254;2022-07-30T12:19:44;0.95;;;0.95;;
56629;SDS011;42502;40.732;-74.254;2022-07-30T12:21:48;1.15;;;1.05;;
56629;SDS011;42502;40.732;-74.254;2022-07-30T12:23:53;1.00;;;1.00;;
56629;SDS011;42502;40.732;-74.254;2022-07-30T12:25:58;1.00;;;1.00;;
56629;SDS011;42502;40.732;-74.254;2022-07-30T12:27:59;1.20;;;1.10;;
56629;SDS011;42502;40.732;-74.254;2022-07-30T12:30:01;1.00;;;1.00;;
56629;SDS011;42502;40.732;-74.254;2022-07-30T12:32:03;1.10;;;1.00;;
56629;SDS011;42502;40.732;-74.254;2022-07-30T12:34:17;1.10;;;1.05;;
56629;SDS011;42502;40.732;-74.254;2022-07-30T12:36:32;0.90;;;0.90;;
56629;SDS011;42502;40.732;-74.254;2022-07-30T12:38:43;0.88;;;0.80;;